createdAt,value
2019-03-30T00:01:05.101Z,19.20
2019-03-30T00:03:35.830Z,20.60
2019-03-30T00:06:06.576Z,18.67
2019-03-30T00:08:37.347Z,19.57
2019-03-30T00:11:08.122Z,18.80
2019-03-30T00:13:39.347Z,18.17
2019-03-30T00:16:10.088Z,18.00
2019-03-30T00:18:41.492Z,16.90
2019-03-30T00:21:12.488Z,16.70
2019-03-30T00:23:43.250Z,17.23
2019-03-30T00:26:13.988Z,17.50
2019-03-30T00:28:44.759Z,18.13
2019-03-30T00:31:15.538Z,18.00
2019-03-30T00:33:46.322Z,17.57
2019-03-30T00:36:17.058Z,20.67
2019-03-30T00:38:47.835Z,22.70
2019-03-30T00:41:18.629Z,23.97
2019-03-30T00:43:49.359Z,22.27
2019-03-30T00:46:20.129Z,20.07
2019-03-30T00:48:50.924Z,19.30
2019-03-30T00:51:21.707Z,20.80
2019-03-30T00:53:52.454Z,19.10
2019-03-30T00:56:23.199Z,20.13
2019-03-30T00:58:53.950Z,22.07
2019-03-30T01:01:24.721Z,20.87
2019-03-30T01:03:55.470Z,21.13
2019-03-30T01:06:26.266Z,21.03
2019-03-30T01:08:57.036Z,20.93
2019-03-30T01:11:27.847Z,21.20
2019-03-30T01:13:59.395Z,19.03
2019-03-30T01:16:30.098Z,22.27
2019-03-30T01:19:00.887Z,22.80
2019-03-30T01:21:31.692Z,20.53
2019-03-30T01:24:02.703Z,21.50
2019-03-30T01:26:33.450Z,21.47
2019-03-30T01:29:04.339Z,20.13
2019-03-30T01:31:35.151Z,23.73
2019-03-30T01:34:05.922Z,23.23
2019-03-30T01:36:36.703Z,23.33
2019-03-30T01:39:08.391Z,24.00
2019-03-30T01:41:39.207Z,23.70
2019-03-30T01:44:11.010Z,24.37
2019-03-30T01:46:41.730Z,23.97
2019-03-30T01:49:12.497Z,25.17
2019-03-30T01:51:43.216Z,26.00
2019-03-30T01:54:14.130Z,26.30
2019-03-30T01:56:44.866Z,24.83
2019-03-30T01:59:15.631Z,24.73
2019-03-30T02:01:46.347Z,26.70
2019-03-30T02:04:17.230Z,26.17
2019-03-30T02:06:47.969Z,27.50
2019-03-30T02:09:18.774Z,27.70
2019-03-30T02:11:49.503Z,26.07
2019-03-30T02:14:20.758Z,28.17
2019-03-30T02:16:51.864Z,28.93
2019-03-30T02:19:22.609Z,28.83
2019-03-30T02:21:53.340Z,28.13
2019-03-30T02:24:24.380Z,29.13
2019-03-30T02:26:55.106Z,31.20
2019-03-30T02:29:25.859Z,27.03
2019-03-30T02:31:56.666Z,25.00
2019-03-30T02:34:27.483Z,25.93
2019-03-30T02:36:58.227Z,26.23
2019-03-30T02:39:29.016Z,24.77
2019-03-30T02:41:59.814Z,26.53
2019-03-30T02:44:30.613Z,25.07
2019-03-30T02:47:01.389Z,25.83
2019-03-30T02:49:32.238Z,28.50
2019-03-30T02:52:03.045Z,27.87
2019-03-30T02:54:34.028Z,28.67
2019-03-30T02:57:04.761Z,30.50
2019-03-30T02:59:35.508Z,29.43
2019-03-30T03:02:06.246Z,31.10
2019-03-30T03:04:37.080Z,29.33
2019-03-30T03:07:07.838Z,30.90
2019-03-30T03:09:38.726Z,30.03
2019-03-30T03:12:09.431Z,28.33
2019-03-30T03:14:40.591Z,28.83
2019-03-30T03:17:11.296Z,30.60
2019-03-30T03:19:42.031Z,30.63
2019-03-30T03:22:12.780Z,29.50
2019-03-30T03:24:43.895Z,28.77
2019-03-30T03:27:14.703Z,30.87
2019-03-30T03:29:45.487Z,27.23
2019-03-30T03:32:16.269Z,32.50
2019-03-30T03:34:47.089Z,30.50
2019-03-30T03:37:17.806Z,27.50
2019-03-30T03:39:49.784Z,28.53
2019-03-30T03:42:20.526Z,30.97
2019-03-30T03:44:51.345Z,28.83
2019-03-30T03:47:22.087Z,28.43
2019-03-30T03:49:52.830Z,27.13
2019-03-30T03:52:23.532Z,31.53
2019-03-30T03:54:55.717Z,30.27
2019-03-30T03:57:28.678Z,30.47
2019-03-30T04:00:01.796Z,30.47
2019-03-30T04:02:37.402Z,28.10
2019-03-30T04:05:09.892Z,27.93
2019-03-30T04:07:43.525Z,27.90
2019-03-30T04:10:15.436Z,29.47
2019-03-30T04:12:47.636Z,28.77
2019-03-30T04:15:28.578Z,28.27
2019-03-30T04:17:59.309Z,28.07
2019-03-30T04:20:30.087Z,27.00
2019-03-30T04:23:00.835Z,27.70
2019-03-30T04:25:31.785Z,26.60
2019-03-30T04:28:03.606Z,26.80
2019-03-30T04:30:34.407Z,27.60
2019-03-30T04:33:05.325Z,26.23
2019-03-30T04:35:37.203Z,27.70
2019-03-30T04:38:07.968Z,28.63
2019-03-30T04:40:38.903Z,30.20
2019-03-30T04:43:09.638Z,27.00
2019-03-30T04:45:40.540Z,28.83
2019-03-30T04:48:11.539Z,28.50
2019-03-30T04:50:42.435Z,29.17
2019-03-30T04:53:13.143Z,27.23
2019-03-30T04:55:44.216Z,27.33
2019-03-30T04:58:14.971Z,29.83
2019-03-30T05:00:45.719Z,27.03
2019-03-30T05:03:16.453Z,28.17
2019-03-30T05:05:47.275Z,28.23
2019-03-30T05:08:17.983Z,26.60
2019-03-30T05:10:48.966Z,28.53
2019-03-30T05:13:19.742Z,28.77
2019-03-30T05:15:51.013Z,25.83
2019-03-30T05:18:21.779Z,26.27
2019-03-30T05:20:52.491Z,27.00
2019-03-30T05:23:23.221Z,27.87
2019-03-30T05:25:54.092Z,26.10
2019-03-30T05:28:24.827Z,26.83
2019-03-30T05:30:55.541Z,25.97
2019-03-30T05:33:26.249Z,26.90
2019-03-30T05:35:57.068Z,27.67
2019-03-30T05:38:27.812Z,26.53
2019-03-30T05:40:58.562Z,27.23
2019-03-30T05:43:29.307Z,26.90
2019-03-30T05:46:00.158Z,25.90
2019-03-30T05:48:31.064Z,26.60
2019-03-30T05:51:01.823Z,25.67
2019-03-30T05:53:33.675Z,26.30
2019-03-30T05:56:04.707Z,27.97
2019-03-30T05:58:35.449Z,27.77
2019-03-30T06:01:06.260Z,26.27
2019-03-30T06:03:37.088Z,28.40
2019-03-30T06:06:07.937Z,26.73
2019-03-30T06:08:38.700Z,26.43
2019-03-30T06:11:09.495Z,27.17
2019-03-30T06:13:40.227Z,26.90
2019-03-30T06:16:11.673Z,27.80
2019-03-30T06:18:42.421Z,27.97
2019-03-30T06:21:14.291Z,25.60
2019-03-30T06:23:48.407Z,28.33
2019-03-30T06:26:17.600Z,26.77
2019-03-30T06:28:48.363Z,27.17
2019-03-30T06:31:19.154Z,26.83
2019-03-30T06:33:49.880Z,27.50
2019-03-30T06:36:20.717Z,27.17
2019-03-30T06:38:51.946Z,27.57
2019-03-30T06:41:22.768Z,29.93
2019-03-30T06:43:53.497Z,27.47
2019-03-30T06:46:24.747Z,27.47
2019-03-30T06:48:57.631Z,27.20
2019-03-30T06:52:13.438Z,27.20
2019-03-30T06:54:45.819Z,26.83
2019-03-30T06:57:16.737Z,27.20
2019-03-30T06:59:47.481Z,27.10
2019-03-30T07:02:18.443Z,26.33
2019-03-30T07:04:49.519Z,26.47
2019-03-30T07:07:21.081Z,26.20
2019-03-30T07:09:53.445Z,25.57
2019-03-30T07:12:25.759Z,24.90
2019-03-30T07:14:59.301Z,26.73
2019-03-30T07:17:31.855Z,27.13
2019-03-30T07:20:04.144Z,26.77
2019-03-30T07:22:34.911Z,25.23
2019-03-30T07:25:05.932Z,23.73
2019-03-30T07:27:37.914Z,23.97
2019-03-30T07:30:09.124Z,24.47
2019-03-30T07:32:39.987Z,24.67
2019-03-30T07:35:13.063Z,22.07
2019-03-30T07:37:43.971Z,21.40
2019-03-30T07:40:15.059Z,19.67
2019-03-30T07:42:46.026Z,21.57
2019-03-30T07:45:17.101Z,19.20
2019-03-30T07:47:48.092Z,19.33
2019-03-30T07:50:19.410Z,18.77
2019-03-30T07:52:50.276Z,18.37
2019-03-30T07:55:21.139Z,17.60
2019-03-30T07:57:52.146Z,19.20
2019-03-30T08:00:22.996Z,18.17
2019-03-30T08:02:54.281Z,18.57
2019-03-30T08:05:25.074Z,19.97
2019-03-30T08:07:55.955Z,17.90
2019-03-30T08:10:27.341Z,17.73
2019-03-30T08:12:58.421Z,18.37
2019-03-30T08:15:29.294Z,16.30
2019-03-30T08:18:00.558Z,17.30
2019-03-30T08:20:31.502Z,16.00
2019-03-30T08:23:02.608Z,17.10
2019-03-30T08:25:33.369Z,17.37
2019-03-30T08:28:04.418Z,16.63
2019-03-30T08:30:36.535Z,16.87
2019-03-30T08:33:07.323Z,17.37
2019-03-30T08:35:38.168Z,15.17
2019-03-30T08:38:09.074Z,16.23
2019-03-30T08:40:39.868Z,15.03
2019-03-30T08:43:10.886Z,15.93
2019-03-30T08:45:41.663Z,16.20
2019-03-30T08:48:12.543Z,15.23
2019-03-30T08:50:43.381Z,15.50
2019-03-30T08:53:14.208Z,16.63
2019-03-30T08:55:45.056Z,14.07
2019-03-30T08:58:16.646Z,14.57
2019-03-30T09:00:53.687Z,13.93
2019-03-30T09:03:41.943Z,12.97
2019-03-30T09:06:12.743Z,14.30
2019-03-30T09:08:43.660Z,13.20
2019-03-30T09:11:14.524Z,11.87
2019-03-30T09:13:46.526Z,11.63
2019-03-30T09:16:17.331Z,12.80
2019-03-30T09:18:48.538Z,10.87
2019-03-30T09:21:19.362Z,9.60
2019-03-30T09:23:50.190Z,11.33
2019-03-30T09:26:21.154Z,9.83
2019-03-30T09:28:53.952Z,12.60
2019-03-30T09:31:31.907Z,11.90
2019-03-30T09:34:12.768Z,11.03
2019-03-30T09:36:45.326Z,12.13
2019-03-30T09:39:16.258Z,12.07
2019-03-30T09:41:47.093Z,8.87
2019-03-30T09:44:17.977Z,9.27
2019-03-30T09:46:48.768Z,13.60
2019-03-30T09:49:19.613Z,14.00
2019-03-30T09:51:50.448Z,14.10
2019-03-30T09:54:26.313Z,13.80
2019-03-30T09:56:58.824Z,12.93
2019-03-30T09:59:29.816Z,14.30
2019-03-30T10:02:00.670Z,13.57
2019-03-30T10:04:31.472Z,13.03
2019-03-30T10:07:02.234Z,13.60
2019-03-30T10:09:33.044Z,13.63
2019-03-30T10:12:04.100Z,14.30
2019-03-30T10:14:34.938Z,9.87
2019-03-30T10:17:05.772Z,9.17
2019-03-30T10:19:36.679Z,7.93
2019-03-30T10:22:08.699Z,8.40
2019-03-30T10:24:39.586Z,7.70
2019-03-30T10:27:10.352Z,8.37
2019-03-30T10:29:41.469Z,9.07
2019-03-30T10:32:12.328Z,8.87
2019-03-30T10:34:43.131Z,7.50
2019-03-30T10:37:14.051Z,7.33
2019-03-30T10:39:45.101Z,8.23
2019-03-30T10:42:15.951Z,7.90
2019-03-30T10:44:46.869Z,7.73
2019-03-30T10:47:17.638Z,7.80
2019-03-30T10:49:48.596Z,7.40
2019-03-30T10:52:19.647Z,8.03
2019-03-30T10:54:53.046Z,7.37
2019-03-30T10:57:23.419Z,8.07
2019-03-30T10:59:54.569Z,8.67
2019-03-30T11:02:25.445Z,8.00
2019-03-30T11:04:56.357Z,7.90
2019-03-30T11:07:27.165Z,7.80
2019-03-30T11:09:58.385Z,7.93
2019-03-30T11:12:29.244Z,8.33
2019-03-30T11:15:00.375Z,8.80
2019-03-30T11:17:31.231Z,8.87
2019-03-30T11:20:02.447Z,8.83
2019-03-30T11:22:34.581Z,8.93
2019-03-30T11:25:08.467Z,8.47
2019-03-30T11:27:38.201Z,8.33
2019-03-30T11:30:09.317Z,8.70
2019-03-30T11:32:40.313Z,8.13
2019-03-30T11:35:11.198Z,8.67
2019-03-30T11:37:42.023Z,7.70
2019-03-30T11:40:12.960Z,6.70
2019-03-30T11:42:43.754Z,6.77
2019-03-30T11:45:15.023Z,6.70
2019-03-30T11:47:45.811Z,6.93
2019-03-30T11:50:16.675Z,6.90
2019-03-30T11:52:47.458Z,6.87
2019-03-30T11:55:22.121Z,6.70
2019-03-30T11:57:50.851Z,7.23
2019-03-30T12:00:21.850Z,7.03
2019-03-30T12:02:52.690Z,7.27
2019-03-30T12:05:23.559Z,7.73
2019-03-30T12:07:54.382Z,7.53
2019-03-30T12:10:25.199Z,7.13
2019-03-30T12:12:56.053Z,7.50
2019-03-30T12:15:28.177Z,7.00
2019-03-30T12:17:59.087Z,6.70
2019-03-30T12:20:30.130Z,7.40
2019-03-30T12:23:00.917Z,6.70
2019-03-30T12:25:35.778Z,7.40
2019-03-30T12:28:04.344Z,7.77
2019-03-30T12:30:35.229Z,7.90
2019-03-30T12:33:06.007Z,7.77
2019-03-30T12:35:36.873Z,7.43
2019-03-30T12:38:07.774Z,7.20
2019-03-30T12:40:38.584Z,7.20
2019-03-30T12:43:09.393Z,6.77
2019-03-30T12:45:41.586Z,7.10
2019-03-30T12:48:12.348Z,6.77
2019-03-30T12:50:43.194Z,7.30
2019-03-30T12:53:14.031Z,7.50
2019-03-30T12:55:49.434Z,6.67
2019-03-30T12:58:17.509Z,7.17
2019-03-30T13:00:48.543Z,8.03
2019-03-30T13:03:19.455Z,7.53
2019-03-30T13:05:50.254Z,7.10
2019-03-30T13:08:21.255Z,6.70
2019-03-30T13:10:52.122Z,7.17
2019-03-30T13:13:22.981Z,7.57
2019-03-30T13:15:53.947Z,7.60
2019-03-30T13:18:24.843Z,7.60
2019-03-30T13:20:56.221Z,8.30
2019-03-30T13:23:27.030Z,6.63
2019-03-30T13:26:03.882Z,7.37
2019-03-30T13:28:30.510Z,6.97
2019-03-30T13:31:01.578Z,7.47
2019-03-30T13:33:33.880Z,7.80
2019-03-30T13:36:05.397Z,7.63
2019-03-30T13:38:36.227Z,8.50
2019-03-30T13:41:07.022Z,8.20
2019-03-30T13:43:37.795Z,8.23
2019-03-30T13:46:08.716Z,7.50
2019-03-30T13:48:40.564Z,7.90
2019-03-30T13:51:11.358Z,7.70
2019-03-30T13:53:42.083Z,7.43
2019-03-30T13:56:17.298Z,7.93
2019-03-30T13:58:45.335Z,8.13
2019-03-30T14:01:16.311Z,7.90
2019-03-30T14:03:47.070Z,7.70
2019-03-30T14:06:17.948Z,7.37
2019-03-30T14:08:48.787Z,7.87
2019-03-30T14:11:19.590Z,8.20
2019-03-30T14:13:50.326Z,8.37
2019-03-30T14:16:22.199Z,7.73
2019-03-30T14:18:53.013Z,8.60
2019-03-30T14:21:24.022Z,8.97
2019-03-30T14:23:54.759Z,8.70
2019-03-30T14:26:31.632Z,8.77
2019-03-30T14:28:58.048Z,9.33
2019-03-30T14:31:28.914Z,9.60
2019-03-30T14:34:02.206Z,8.83
2019-03-30T14:36:32.979Z,8.07
2019-03-30T14:39:05.759Z,8.83
2019-03-30T14:41:36.774Z,9.23
2019-03-30T14:44:07.509Z,8.17
2019-03-30T14:46:39.392Z,8.73
2019-03-30T14:49:10.240Z,8.50
2019-03-30T14:51:40.999Z,9.27
2019-03-30T14:54:11.765Z,9.00
2019-03-30T14:56:45.818Z,8.83
2019-03-30T14:59:15.202Z,8.93
2019-03-30T15:01:46.031Z,8.50
2019-03-30T15:04:16.761Z,8.77
2019-03-30T15:06:47.523Z,8.53
2019-03-30T15:09:18.320Z,8.90
2019-03-30T15:11:49.103Z,9.17
2019-03-30T15:14:19.840Z,9.53
2019-03-30T15:16:50.662Z,10.13
2019-03-30T15:19:21.499Z,8.73
2019-03-30T15:21:52.734Z,8.47
2019-03-30T15:24:23.508Z,8.67
2019-03-30T15:27:00.079Z,8.90
2019-03-30T15:29:26.868Z,9.10
2019-03-30T15:31:57.808Z,8.87
2019-03-30T15:34:47.439Z,9.93
2019-03-30T15:37:21.222Z,9.90
2019-03-30T15:39:52.096Z,10.40
2019-03-30T15:42:22.873Z,10.00
2019-03-30T15:44:53.651Z,10.00
2019-03-30T15:47:24.957Z,10.07
2019-03-30T15:50:04.734Z,10.93
2019-03-30T15:52:46.721Z,9.87
2019-03-30T15:55:29.657Z,10.43
2019-03-30T15:58:03.157Z,10.07
2019-03-30T16:00:34.226Z,10.30
2019-03-30T16:03:05.106Z,10.13
2019-03-30T16:05:36.930Z,10.13
2019-03-30T16:08:07.841Z,10.30
2019-03-30T16:10:40.757Z,9.37
2019-03-30T16:16:12.360Z,11.67
2019-03-30T16:18:52.014Z,10.20
2019-03-30T16:21:28.018Z,11.57
2019-03-30T16:24:32.703Z,10.20
2019-03-30T16:27:28.232Z,10.47
2019-03-30T16:29:48.643Z,10.60
2019-03-30T16:33:07.394Z,11.00
2019-03-30T16:35:52.723Z,10.37
2019-03-30T16:38:31.632Z,10.20
2019-03-30T16:41:10.100Z,11.23
2019-03-30T16:43:46.947Z,10.67
2019-03-30T16:46:20.736Z,10.43
2019-03-30T16:48:51.521Z,10.83
2019-03-30T16:51:22.492Z,11.20
2019-03-30T16:53:53.258Z,10.87
2019-03-30T16:56:24.108Z,10.70
2019-03-30T16:58:55.011Z,11.60
2019-03-30T17:01:25.789Z,11.50
2019-03-30T17:03:56.591Z,10.97
2019-03-30T17:06:27.545Z,9.43
2019-03-30T17:08:58.258Z,12.87
2019-03-30T17:11:29.048Z,32.97
2019-03-30T17:13:59.849Z,36.27
2019-03-30T17:16:30.608Z,26.47
2019-03-30T17:19:01.363Z,19.10
2019-03-30T17:21:32.174Z,16.97
2019-03-30T17:24:04.472Z,14.07
2019-03-30T17:26:35.301Z,18.23
2019-03-30T17:29:06.043Z,15.40
2019-03-30T17:31:36.868Z,14.27
2019-03-30T17:34:07.724Z,22.10
2019-03-30T17:36:38.828Z,16.50
2019-03-30T17:39:13.613Z,16.10
2019-03-30T17:41:44.490Z,15.20
2019-03-30T17:44:15.308Z,15.53
2019-03-30T17:46:46.092Z,17.93
2019-03-30T17:49:16.851Z,17.87
2019-03-30T17:51:47.874Z,16.37
2019-03-30T17:54:18.693Z,15.17
2019-03-30T17:56:49.484Z,13.63
2019-03-30T17:59:23.535Z,14.70
2019-03-30T18:01:52.722Z,13.33
2019-03-30T18:04:23.588Z,17.27
2019-03-30T18:06:54.494Z,18.37
2019-03-30T18:09:25.450Z,15.23
2019-03-30T18:11:56.230Z,14.07
2019-03-30T18:14:27.448Z,13.60
2019-03-30T18:16:58.306Z,13.17
2019-03-30T18:19:29.055Z,12.80
2019-03-30T18:22:04.029Z,12.33
2019-03-30T18:24:36.412Z,11.63
2019-03-30T18:27:07.306Z,17.33
2019-03-30T18:29:38.091Z,14.40
2019-03-30T18:32:09.030Z,13.50
2019-03-30T18:34:41.130Z,13.40
2019-03-30T18:37:12.395Z,13.90
2019-03-30T18:39:43.190Z,12.77
2019-03-30T18:42:13.935Z,12.90
2019-03-30T18:44:45.981Z,14.57
2019-03-30T18:47:16.739Z,14.53
2019-03-30T18:49:48.563Z,13.97
2019-03-30T18:52:20.033Z,16.03
2019-03-30T18:54:53.150Z,18.17
2019-03-30T18:57:24.065Z,18.77
2019-03-30T18:59:54.845Z,20.07
2019-03-30T19:02:25.710Z,24.83
2019-03-30T19:04:56.447Z,22.30
2019-03-30T19:07:27.434Z,25.20
2019-03-30T19:09:58.187Z,26.23
2019-03-30T19:12:28.994Z,26.33
2019-03-30T19:14:59.829Z,26.50
2019-03-30T19:17:30.689Z,30.57
2019-03-30T19:20:01.513Z,29.60
2019-03-30T19:22:32.387Z,28.00
2019-03-30T19:25:03.525Z,27.83
2019-03-30T19:27:34.398Z,28.80
2019-03-30T19:30:05.531Z,26.93
2019-03-30T19:32:36.280Z,23.33
2019-03-30T19:35:07.194Z,18.93
2019-03-30T19:37:38.051Z,21.97
2019-03-30T19:40:08.947Z,26.03
2019-03-30T19:42:39.703Z,27.57
2019-03-30T19:45:10.578Z,28.40
2019-03-30T19:47:41.403Z,26.10
2019-03-30T19:50:12.361Z,24.77
2019-03-30T19:52:43.273Z,24.93
2019-03-30T19:55:14.313Z,22.10
2019-03-30T19:57:45.219Z,23.10
2019-03-30T20:00:17.386Z,20.30
2019-03-30T20:02:48.221Z,18.70
2019-03-30T20:05:19.085Z,20.10
2019-03-30T20:07:50.032Z,23.33
2019-03-30T20:10:20.881Z,21.57
2019-03-30T20:12:51.721Z,22.53
2019-03-30T20:15:22.524Z,22.60
2019-03-30T20:17:53.555Z,19.77
2019-03-30T20:20:24.336Z,22.37
2019-03-30T20:22:55.210Z,20.93
2019-03-30T20:25:27.152Z,23.17
2019-03-30T20:27:58.532Z,24.43
2019-03-30T20:30:31.268Z,25.50
2019-03-30T20:33:02.635Z,23.10
2019-03-30T20:35:35.451Z,23.33
2019-03-30T20:38:06.815Z,22.63
2019-03-30T20:40:40.208Z,21.27
2019-03-30T20:43:18.220Z,21.73
2019-03-30T20:45:49.484Z,23.10
2019-03-30T20:48:29.457Z,23.30
2019-03-30T20:51:00.779Z,21.90
2019-03-30T20:53:32.653Z,21.47
2019-03-30T20:56:04.732Z,22.60
2019-03-30T20:58:35.611Z,22.17
2019-03-30T21:01:06.918Z,21.07
2019-03-30T21:03:37.782Z,23.43
2019-03-30T21:06:08.546Z,26.10
2019-03-30T21:08:39.681Z,24.67
2019-03-30T21:11:10.501Z,23.83
2019-03-30T21:13:41.345Z,22.77
2019-03-30T21:16:12.209Z,25.23
2019-03-30T21:18:43.006Z,25.90
2019-03-30T21:21:14.029Z,24.07
2019-03-30T21:23:45.093Z,23.37
2019-03-30T21:26:16.381Z,23.47
2019-03-30T21:28:47.171Z,25.07
2019-03-30T21:31:17.915Z,23.97
2019-03-30T21:33:48.903Z,25.53
2019-03-30T21:36:19.689Z,24.90
2019-03-30T21:38:50.550Z,25.27
2019-03-30T21:41:21.313Z,25.33
2019-03-30T21:43:52.173Z,24.77
2019-03-30T21:46:23.054Z,27.60
2019-03-30T21:48:54.317Z,26.00
2019-03-30T21:51:25.088Z,29.40
2019-03-30T21:53:56.168Z,25.57
2019-03-30T21:56:26.985Z,26.07
2019-03-30T21:58:58.347Z,26.40
2019-03-30T22:01:29.080Z,28.13
2019-03-30T22:03:59.952Z,28.70
2019-03-30T22:06:30.863Z,26.83
2019-03-30T22:09:01.971Z,27.90
2019-03-30T22:11:34.182Z,29.27
2019-03-30T22:14:05.331Z,29.40
2019-03-30T22:16:36.063Z,29.00
2019-03-30T22:19:06.866Z,26.27
2019-03-30T22:21:38.701Z,28.47
2019-03-30T22:24:09.644Z,29.83
2019-03-30T22:26:40.819Z,28.57
2019-03-30T22:29:12.575Z,29.27
2019-03-30T22:31:43.426Z,28.30
2019-03-30T22:34:14.316Z,28.50
2019-03-30T22:36:45.056Z,27.50
2019-03-30T22:39:15.950Z,27.57
2019-03-30T22:41:46.732Z,27.73
2019-03-30T22:44:17.587Z,25.57
2019-03-30T22:46:48.374Z,27.57
2019-03-30T22:49:19.160Z,26.83
2019-03-30T22:51:49.923Z,26.23
2019-03-30T22:54:21.037Z,26.73
2019-03-30T22:56:51.840Z,25.77
2019-03-30T22:59:22.620Z,25.73
2019-03-30T23:01:53.394Z,23.80
2019-03-30T23:04:24.247Z,24.63
2019-03-30T23:06:55.032Z,24.63
2019-03-30T23:09:26.088Z,22.93
2019-03-30T23:11:56.858Z,22.40
2019-03-30T23:14:27.875Z,24.00
2019-03-30T23:16:58.611Z,22.87
2019-03-30T23:19:31.671Z,22.87
2019-03-30T23:22:02.412Z,23.03
2019-03-30T23:24:33.339Z,23.63
2019-03-30T23:27:04.296Z,23.50
2019-03-30T23:29:35.069Z,23.67
2019-03-30T23:32:05.922Z,22.60
2019-03-30T23:34:36.845Z,23.13
2019-03-30T23:37:07.639Z,22.90
2019-03-30T23:39:38.512Z,23.07
2019-03-30T23:42:09.352Z,22.17
2019-03-30T23:44:40.187Z,23.23
2019-03-30T23:47:13.087Z,22.80
2019-03-30T23:49:43.859Z,22.80
2019-03-30T23:52:16.687Z,21.43
2019-03-30T23:54:48.756Z,23.33
2019-03-30T23:57:19.571Z,23.87
2019-03-30T23:59:50.367Z,22.50
